createdAt,value
2023-01-30T00:07:54.580Z,165
2023-01-30T00:37:56.970Z,163
2023-01-30T01:07:53.776Z,160
2023-01-30T01:37:48.664Z,160
2023-01-30T02:07:45.053Z,167
2023-01-30T02:37:41.100Z,166
2023-01-30T03:07:38.319Z,168
2023-01-30T03:37:38.357Z,160
2023-01-30T04:07:43.057Z,155
2023-01-30T04:37:36.661Z,155
2023-01-30T05:07:37.228Z,150
2023-01-30T05:37:41.713Z,146
2023-01-30T06:07:38.145Z,143
2023-01-30T06:37:35.231Z,142
2023-01-30T07:07:30.918Z,138
2023-01-30T07:37:34.520Z,137
2023-01-30T08:08:40.354Z,134
2023-01-30T08:38:35.629Z,133
2023-01-30T09:08:33.139Z,131
2023-01-30T09:38:31.389Z,160
2023-01-30T10:08:35.057Z,168
2023-01-30T10:38:37.360Z,152
2023-01-30T11:08:37.102Z,152
2023-01-30T11:38:31.963Z,147
2023-01-30T12:08:35.826Z,145
2023-01-30T12:38:37.196Z,144
2023-01-30T13:08:30.350Z,148
2023-01-30T13:38:30.480Z,168
2023-01-30T14:08:29.736Z,155
2023-01-30T14:38:32.692Z,149
2023-01-30T15:08:27.067Z,151
2023-01-30T15:38:31.057Z,148
2023-01-30T16:08:30.477Z,173
2023-01-30T16:38:29.578Z,154
2023-01-30T17:08:27.291Z,161
2023-01-30T17:38:28.952Z,152
2023-01-30T18:08:26.471Z,145
2023-01-30T18:38:25.492Z,144
2023-01-30T19:08:20.395Z,140
2023-01-30T19:38:16.639Z,138
2023-01-30T20:08:15.578Z,135
2023-01-30T20:38:13.278Z,132
2023-01-30T21:08:11.608Z,130
2023-01-30T21:38:15.709Z,130
2023-01-30T22:08:11.913Z,131
2023-01-30T22:38:12.098Z,127
2023-01-30T23:08:08.051Z,125
2023-01-30T23:38:11.136Z,121
